Aérodrome :
LOGIN :

S'inscrire | Disclaimer

   EN    FR    IT 

 










Légende :    VFR   VFR Marginal   IFR   IFR Intensif   IFR Très Intensif
Visi : 
Plafond : 
>= 8 km
>= 3000ft
5 à 8 km
1000 à 3000 ft
1500m à 5 km
500 à 1000 ft
800 à 1500m
200 à 500 ft
< 800m
< 200 ft
Symboles :   Orages  Brouillard  Fortes neiges  Fortes précipitations  Vent > 20 kt
SIGMETs :   Divers  Orages  Givrage  Turbulence  Onde Orograph.  Cendres Volcan.






- Altitude de l'aérodrome : 37 ft


EHVL - Vlieland Heliport

DERNIER METAR :
  • 232159Z AUTO 19021KT 9999 -RA SCT015CB OVC079 16/14 Q0995 WHT

METARs EXPIRÉS :
  • 232155Z AUTO 19021KT 9999 -RA FEW015CB OVC080 16/14 Q0995 BLU
  • 232148Z AUTO 19020KT 9999 -RA SCT015CB BKN079 OVC084 16/15 Q0995 WHT
  • 232137Z AUTO 19019KT 9999 -SHRA FEW015CB SCT080 OVC085 16/15 Q0996 BLU
  • 232129Z AUTO 19023KT 9999 -RA FEW015CB SCT076 BKN085 16/15 Q0996 BLU
  • 232125Z AUTO 19022KT 9999 -RA SCT015CB BKN084 OVC090 17/15 Q0996 WHT
  • 232057Z AUTO 17018KT 9999 -SHRA FEW015CB SCT077 OVC084 17/15 Q0996 BLU
  • 232025Z AUTO 18016KT 9999 SCT042 BKN046 BKN050 17/15 Q0997 BLU
  • 231955Z AUTO 18015KT 9999 BKN039 OVC077 17/15 Q0997 BLU
  • 231925Z AUTO 18013KT 9999 SCT047 SCT054 BKN060 17/15 Q0997 BLU

Prévision TAF périmée.



MET'MAP, la Météo Aéronautique d'un coup d'oeil ! - Copyright ORBIFLY Décembre 2007 - Disclaimer

ORBIFLY MET'MAP TEAM :

Programmation & Développement : Alexandra Zaïnal
Sur une idée originale de : Baudouin d'Aumeries
Assistance à la programmation : Marc-Olivier Méhu
Soutien technique & logistique : Manuel Goepfert

Contact : metmap@orbifly.com




SOURCES & CREDITS :

   NOAA